Terminal Aerodrome Forecast
Issued by NWS

Home | Current Version | Previous Version | Text Only | Print | Product List | Glossary On
Versions: 1 2 3 4 5 6 7 8 9 10 11 12 13
000
FTUS45 KRIW 051133
TAFCPR
TAF
KCPR 051133Z 0512/0612 22011KT P6SM SCT100
     FM051400 22016G24KT P6SM FEW120
     FM051900 22026G36KT P6SM FEW070
     FM060100 24020G28KT P6SM VCTS SCT070CB BKN110
     FM060500 27011KT P6SM VCSH BKN080
     FM060900 23008KT P6SM FEW120=

USA.gov is the U.S. government's official web portal to all federal, state and local government web resources and services.